sensor_id;sensor_type;location;lat;lon;timestamp;P1;durP1;ratioP1;P2;durP2;ratioP2
12800;SDS011;6464;42.494;27.470;2023-07-13T05:05:25;0.00;;;0.00;;
12800;SDS011;6464;42.494;27.470;2023-07-13T05:07:53;0.10;;;0.10;;
12800;SDS011;6464;42.494;27.470;2023-07-13T05:10:22;0.10;;;0.10;;
12800;SDS011;6464;42.494;27.470;2023-07-13T05:12:50;0.10;;;0.10;;
12800;SDS011;6464;42.494;27.470;2023-07-13T05:25:03;0.00;;;0.00;;
12800;SDS011;6464;42.494;27.470;2023-07-13T05:27:31;0.00;;;0.00;;
12800;SDS011;6464;42.494;27.470;2023-07-13T05:30:00;0.00;;;0.00;;
12800;SDS011;6464;42.494;27.470;2023-07-13T05:32:30;0.00;;;0.00;;
12800;SDS011;6464;42.494;27.470;2023-07-13T05:34:57;0.10;;;0.10;;
12800;SDS011;6464;42.494;27.470;2023-07-13T05:37:24;0.10;;;0.10;;
12800;SDS011;6464;42.494;27.470;2023-07-13T05:39:51;0.10;;;0.10;;
12800;SDS011;6464;42.494;27.470;2023-07-13T05:42:24;0.20;;;0.20;;
12800;SDS011;6464;42.494;27.470;2023-07-13T05:44:51;0.20;;;0.20;;
12800;SDS011;6464;42.494;27.470;2023-07-13T05:47:18;0.20;;;0.20;;
12800;SDS011;6464;42.494;27.470;2023-07-13T05:49:47;0.10;;;0.10;;
12800;SDS011;6464;42.494;27.470;2023-07-13T05:52:16;0.20;;;0.20;;
12800;SDS011;6464;42.494;27.470;2023-07-13T05:54:43;0.30;;;0.30;;
12800;SDS011;6464;42.494;27.470;2023-07-13T05:57:12;0.20;;;0.20;;
12800;SDS011;6464;42.494;27.470;2023-07-13T05:59:42;0.30;;;0.30;;
12800;SDS011;6464;42.494;27.470;2023-07-13T06:02:11;0.10;;;0.10;;
12800;SDS011;6464;42.494;27.470;2023-07-13T06:04:40;0.20;;;0.20;;
12800;SDS011;6464;42.494;27.470;2023-07-13T06:07:07;0.40;;;0.40;;
12800;SDS011;6464;42.494;27.470;2023-07-13T06:09:34;0.50;;;0.50;;
12800;SDS011;6464;42.494;27.470;2023-07-13T06:12:01;0.57;;;0.57;;
12800;SDS011;6464;42.494;27.470;2023-07-13T06:14:28;0.70;;;0.70;;
12800;SDS011;6464;42.494;27.470;2023-07-13T06:16:57;0.90;;;0.90;;
12800;SDS011;6464;42.494;27.470;2023-07-13T06:19:24;1.17;;;1.17;;
12800;SDS011;6464;42.494;27.470;2023-07-13T06:21:52;1.02;;;1.02;;
12800;SDS011;6464;42.494;27.470;2023-07-13T06:24:20;1.30;;;1.30;;
12800;SDS011;6464;42.494;27.470;2023-07-13T06:26:48;1.40;;;1.40;;
12800;SDS011;6464;42.494;27.470;2023-07-13T06:29:15;1.60;;;1.60;;
12800;SDS011;6464;42.494;27.470;2023-07-13T06:31:42;1.70;;;1.70;;
12800;SDS011;6464;42.494;27.470;2023-07-13T06:34:10;1.92;;;1.92;;
12800;SDS011;6464;42.494;27.470;2023-07-13T06:36:39;2.40;;;2.40;;
12800;SDS011;6464;42.494;27.470;2023-07-13T06:39:06;2.97;;;2.97;;
12800;SDS011;6464;42.494;27.470;2023-07-13T06:41:36;2.90;;;2.90;;
12800;SDS011;6464;42.494;27.470;2023-07-13T06:44:07;3.03;;;3.03;;
12800;SDS011;6464;42.494;27.470;2023-07-13T06:46:34;3.20;;;3.20;;
12800;SDS011;6464;42.494;27.470;2023-07-13T06:49:03;3.20;;;3.20;;
12800;SDS011;6464;42.494;27.470;2023-07-13T06:51:31;1.75;;;1.75;;
12800;SDS011;6464;42.494;27.470;2023-07-13T06:53:58;3.88;;;3.78;;
12800;SDS011;6464;42.494;27.470;2023-07-13T06:56:25;1.80;;;1.80;;
12800;SDS011;6464;42.494;27.470;2023-07-13T06:58:52;1.80;;;1.80;;
12800;SDS011;6464;42.494;27.470;2023-07-13T07:01:20;1.70;;;1.70;;
12800;SDS011;6464;42.494;27.470;2023-07-13T07:03:47;2.10;;;2.10;;
12800;SDS011;6464;42.494;27.470;2023-07-13T07:06:16;2.70;;;2.70;;
12800;SDS011;6464;42.494;27.470;2023-07-13T07:08:46;2.63;;;2.63;;
12800;SDS011;6464;42.494;27.470;2023-07-13T07:11:14;2.92;;;2.92;;
12800;SDS011;6464;42.494;27.470;2023-07-13T07:13:44;3.20;;;3.20;;
12800;SDS011;6464;42.494;27.470;2023-07-13T07:16:11;3.50;;;3.50;;
12800;SDS011;6464;42.494;27.470;2023-07-13T07:18:38;3.30;;;3.30;;
12800;SDS011;6464;42.494;27.470;2023-07-13T07:21:07;3.42;;;3.42;;
12800;SDS011;6464;42.494;27.470;2023-07-13T07:23:34;3.33;;;3.33;;
12800;SDS011;6464;42.494;27.470;2023-07-13T07:26:02;3.53;;;3.53;;
12800;SDS011;6464;42.494;27.470;2023-07-13T07:28:29;4.00;;;3.90;;
12800;SDS011;6464;42.494;27.470;2023-07-13T07:30:57;4.05;;;3.95;;
12800;SDS011;6464;42.494;27.470;2023-07-13T07:33:25;4.20;;;4.10;;
12800;SDS011;6464;42.494;27.470;2023-07-13T07:35:52;5.20;;;5.10;;
12800;SDS011;6464;42.494;27.470;2023-07-13T07:38:19;4.90;;;4.80;;
12800;SDS011;6464;42.494;27.470;2023-07-13T07:40:49;5.10;;;5.00;;
12800;SDS011;6464;42.494;27.470;2023-07-13T07:43:17;4.60;;;4.50;;
12800;SDS011;6464;42.494;27.470;2023-07-13T07:45:46;5.32;;;5.22;;
12800;SDS011;6464;42.494;27.470;2023-07-13T07:48:16;7.40;;;7.20;;
12800;SDS011;6464;42.494;27.470;2023-07-13T07:50:43;10.55;;;10.25;;
12800;SDS011;6464;42.494;27.470;2023-07-13T07:53:10;4.45;;;4.35;;
12800;SDS011;6464;42.494;27.470;2023-07-13T07:55:38;5.15;;;5.05;;
12800;SDS011;6464;42.494;27.470;2023-07-13T07:58:05;5.47;;;5.38;;
12800;SDS011;6464;42.494;27.470;2023-07-13T08:00:33;5.40;;;5.30;;
12800;SDS011;6464;42.494;27.470;2023-07-13T08:03:00;5.25;;;5.15;;
12800;SDS011;6464;42.494;27.470;2023-07-13T08:05:28;5.85;;;5.75;;
12800;SDS011;6464;42.494;27.470;2023-07-13T08:07:55;5.70;;;5.60;;
12800;SDS011;6464;42.494;27.470;2023-07-13T08:10:22;5.70;;;5.60;;
12800;SDS011;6464;42.494;27.470;2023-07-13T08:12:48;11.02;;;10.70;;
12800;SDS011;6464;42.494;27.470;2023-07-13T08:15:16;12.20;;;11.80;;
12800;SDS011;6464;42.494;27.470;2023-07-13T08:17:48;13.30;;;12.90;;
12800;SDS011;6464;42.494;27.470;2023-07-13T08:20:16;13.55;;;13.07;;
12800;SDS011;6464;42.494;27.470;2023-07-13T08:22:43;12.40;;;12.00;;
12800;SDS011;6464;42.494;27.470;2023-07-13T08:25:10;13.85;;;13.35;;
12800;SDS011;6464;42.494;27.470;2023-07-13T08:27:37;14.95;;;14.45;;
12800;SDS011;6464;42.494;27.470;2023-07-13T08:30:04;16.15;;;15.55;;
12800;SDS011;6464;42.494;27.470;2023-07-13T08:32:33;15.88;;;15.30;;
12800;SDS011;6464;42.494;27.470;2023-07-13T08:35:01;17.70;;;17.10;;
12800;SDS011;6464;42.494;27.470;2023-07-13T08:37:31;17.35;;;16.75;;
12800;SDS011;6464;42.494;27.470;2023-07-13T08:39:58;17.30;;;16.70;;
12800;SDS011;6464;42.494;27.470;2023-07-13T08:42:32;5.43;;;5.32;;
12800;SDS011;6464;42.494;27.470;2023-07-13T08:45:06;5.57;;;5.47;;
12800;SDS011;6464;42.494;27.470;2023-07-13T08:47:39;5.28;;;5.18;;
12800;SDS011;6464;42.494;27.470;2023-07-13T08:50:13;5.65;;;5.55;;
12800;SDS011;6464;42.494;27.470;2023-07-13T08:52:44;6.00;;;5.90;;
12800;SDS011;6464;42.494;27.470;2023-07-13T08:55:13;12.57;;;12.18;;
12800;SDS011;6464;42.494;27.470;2023-07-13T08:57:43;11.90;;;11.50;;
12800;SDS011;6464;42.494;27.470;2023-07-13T09:00:15;13.20;;;12.80;;
12800;SDS011;6464;42.494;27.470;2023-07-13T09:02:44;14.50;;;14.00;;
12800;SDS011;6464;42.494;27.470;2023-07-13T09:05:14;17.85;;;17.25;;
12800;SDS011;6464;42.494;27.470;2023-07-13T09:08:06;18.95;;;18.25;;
12800;SDS011;6464;42.494;27.470;2023-07-13T09:10:49;19.48;;;18.77;;
12800;SDS011;6464;42.494;27.470;2023-07-13T09:13:22;6.20;;;6.00;;
12800;SDS011;6464;42.494;27.470;2023-07-13T09:15:54;6.30;;;6.10;;
12800;SDS011;6464;42.494;27.470;2023-07-13T09:18:23;6.00;;;5.90;;
12800;SDS011;6464;42.494;27.470;2023-07-13T09:20:56;6.40;;;6.20;;
12800;SDS011;6464;42.494;27.470;2023-07-13T09:23:27;6.30;;;6.10;;
12800;SDS011;6464;42.494;27.470;2023-07-13T09:25:58;5.97;;;5.88;;
12800;SDS011;6464;42.494;27.470;2023-07-13T09:28:29;6.00;;;5.90;;
12800;SDS011;6464;42.494;27.470;2023-07-13T09:31:04;6.07;;;5.97;;
12800;SDS011;6464;42.494;27.470;2023-07-13T09:33:35;5.85;;;5.75;;
12800;SDS011;6464;42.494;27.470;2023-07-13T09:36:08;5.80;;;5.70;;
12800;SDS011;6464;42.494;27.470;2023-07-13T09:38:45;5.40;;;5.30;;
12800;SDS011;6464;42.494;27.470;2023-07-13T09:41:15;5.80;;;5.70;;
12800;SDS011;6464;42.494;27.470;2023-07-13T09:44:01;5.72;;;5.63;;
12800;SDS011;6464;42.494;27.470;2023-07-13T09:46:34;5.50;;;5.40;;
12800;SDS011;6464;42.494;27.470;2023-07-13T09:49:01;5.50;;;5.40;;
12800;SDS011;6464;42.494;27.470;2023-07-13T09:51:29;5.50;;;5.40;;
12800;SDS011;6464;42.494;27.470;2023-07-13T09:54:02;5.43;;;5.32;;
12800;SDS011;6464;42.494;27.470;2023-07-13T09:56:31;5.57;;;5.47;;
12800;SDS011;6464;42.494;27.470;2023-07-13T09:58:58;5.57;;;5.47;;
12800;SDS011;6464;42.494;27.470;2023-07-13T10:01:32;5.60;;;5.50;;
12800;SDS011;6464;42.494;27.470;2023-07-13T10:04:09;5.50;;;5.40;;
12800;SDS011;6464;42.494;27.470;2023-07-13T10:06:40;5.57;;;5.47;;
12800;SDS011;6464;42.494;27.470;2023-07-13T10:09:08;5.70;;;5.60;;
12800;SDS011;6464;42.494;27.470;2023-07-13T10:11:39;5.80;;;5.70;;
12800;SDS011;6464;42.494;27.470;2023-07-13T10:14:13;5.70;;;5.60;;
12800;SDS011;6464;42.494;27.470;2023-07-13T10:16:42;5.97;;;5.88;;
12800;SDS011;6464;42.494;27.470;2023-07-13T10:19:11;6.18;;;6.00;;
12800;SDS011;6464;42.494;27.470;2023-07-13T10:21:52;6.20;;;6.05;;
12800;SDS011;6464;42.494;27.470;2023-07-13T10:24:22;5.72;;;5.63;;
12800;SDS011;6464;42.494;27.470;2023-07-13T10:26:52;6.05;;;5.95;;
12800;SDS011;6464;42.494;27.470;2023-07-13T10:29:23;5.85;;;5.75;;
12800;SDS011;6464;42.494;27.470;2023-07-13T10:31:54;6.10;;;6.00;;
12800;SDS011;6464;42.494;27.470;2023-07-13T10:34:22;6.20;;;6.00;;
12800;SDS011;6464;42.494;27.470;2023-07-13T10:36:51;5.78;;;5.68;;
12800;SDS011;6464;42.494;27.470;2023-07-13T10:39:20;5.93;;;5.82;;
12800;SDS011;6464;42.494;27.470;2023-07-13T10:41:50;6.10;;;6.00;;
12800;SDS011;6464;42.494;27.470;2023-07-13T10:44:21;5.97;;;5.88;;
12800;SDS011;6464;42.494;27.470;2023-07-13T10:46:54;6.30;;;6.10;;
12800;SDS011;6464;42.494;27.470;2023-07-13T10:49:26;6.50;;;6.30;;
12800;SDS011;6464;42.494;27.470;2023-07-13T10:51:58;6.60;;;6.40;;
12800;SDS011;6464;42.494;27.470;2023-07-13T10:54:30;5.95;;;5.85;;
12800;SDS011;6464;42.494;27.470;2023-07-13T10:57:14;6.00;;;5.90;;
12800;SDS011;6464;42.494;27.470;2023-07-13T10:59:44;6.45;;;6.25;;
12800;SDS011;6464;42.494;27.470;2023-07-13T11:02:15;6.15;;;6.03;;
12800;SDS011;6464;42.494;27.470;2023-07-13T11:04:53;6.00;;;5.90;;
12800;SDS011;6464;42.494;27.470;2023-07-13T11:07:24;6.60;;;6.40;;
12800;SDS011;6464;42.494;27.470;2023-07-13T11:09:55;6.03;;;5.93;;
12800;SDS011;6464;42.494;27.470;2023-07-13T11:12:27;6.00;;;5.90;;
12800;SDS011;6464;42.494;27.470;2023-07-13T11:15:15;6.57;;;6.38;;
12800;SDS011;6464;42.494;27.470;2023-07-13T11:17:56;6.50;;;6.30;;
12800;SDS011;6464;42.494;27.470;2023-07-13T11:20:34;6.75;;;6.55;;
12800;SDS011;6464;42.494;27.470;2023-07-13T11:23:09;6.70;;;6.50;;
12800;SDS011;6464;42.494;27.470;2023-07-13T11:25:44;6.68;;;6.47;;
12800;SDS011;6464;42.494;27.470;2023-07-13T11:28:21;6.68;;;6.47;;
12800;SDS011;6464;42.494;27.470;2023-07-13T11:30:59;6.85;;;6.65;;
12800;SDS011;6464;42.494;27.470;2023-07-13T11:33:56;6.10;;;5.95;;
12800;SDS011;6464;42.494;27.470;2023-07-13T11:36:28;6.05;;;5.95;;
12800;SDS011;6464;42.494;27.470;2023-07-13T11:39:05;6.10;;;6.00;;
12800;SDS011;6464;42.494;27.470;2023-07-13T11:41:43;5.80;;;5.70;;
12800;SDS011;6464;42.494;27.470;2023-07-13T11:44:17;5.90;;;5.80;;
12800;SDS011;6464;42.494;27.470;2023-07-13T11:46:45;5.95;;;5.85;;
12800;SDS011;6464;42.494;27.470;2023-07-13T11:49:15;5.65;;;5.55;;
12800;SDS011;6464;42.494;27.470;2023-07-13T11:51:43;5.40;;;5.30;;
12800;SDS011;6464;42.494;27.470;2023-07-13T11:54:19;5.30;;;5.20;;
12800;SDS011;6464;42.494;27.470;2023-07-13T11:56:51;5.28;;;5.18;;
12800;SDS011;6464;42.494;27.470;2023-07-13T11:59:19;5.65;;;5.55;;
12800;SDS011;6464;42.494;27.470;2023-07-13T12:01:47;6.30;;;6.10;;
12800;SDS011;6464;42.494;27.470;2023-07-13T12:04:20;5.85;;;5.75;;
12800;SDS011;6464;42.494;27.470;2023-07-13T12:06:54;5.80;;;5.70;;
12800;SDS011;6464;42.494;27.470;2023-07-13T12:09:26;5.75;;;5.65;;
12800;SDS011;6464;42.494;27.470;2023-07-13T12:11:55;5.38;;;5.28;;
12800;SDS011;6464;42.494;27.470;2023-07-13T12:14:26;5.80;;;5.70;;
12800;SDS011;6464;42.494;27.470;2023-07-13T12:17:00;5.70;;;5.60;;
12800;SDS011;6464;42.494;27.470;2023-07-13T12:19:29;5.53;;;5.43;;
12800;SDS011;6464;42.494;27.470;2023-07-13T12:22:01;5.80;;;5.70;;
12800;SDS011;6464;42.494;27.470;2023-07-13T12:24:35;6.38;;;6.18;;
12800;SDS011;6464;42.494;27.470;2023-07-13T12:27:15;5.63;;;5.53;;
12800;SDS011;6464;42.494;27.470;2023-07-13T12:29:57;5.85;;;5.75;;
12800;SDS011;6464;42.494;27.470;2023-07-13T12:32:28;6.30;;;6.10;;
12800;SDS011;6464;42.494;27.470;2023-07-13T12:35:06;5.50;;;5.40;;
12800;SDS011;6464;42.494;27.470;2023-07-13T12:37:41;5.85;;;5.75;;
12800;SDS011;6464;42.494;27.470;2023-07-13T12:40:14;16.58;;;15.98;;
12800;SDS011;6464;42.494;27.470;2023-07-13T12:42:41;6.30;;;6.10;;
12800;SDS011;6464;42.494;27.470;2023-07-13T12:45:12;5.70;;;5.60;;
12800;SDS011;6464;42.494;27.470;2023-07-13T12:47:47;14.65;;;14.15;;
12800;SDS011;6464;42.494;27.470;2023-07-13T12:50:17;5.40;;;5.30;;
12800;SDS011;6464;42.494;27.470;2023-07-13T12:52:49;5.47;;;5.38;;
12800;SDS011;6464;42.494;27.470;2023-07-13T12:55:19;5.32;;;5.22;;
12800;SDS011;6464;42.494;27.470;2023-07-13T12:57:49;5.45;;;5.35;;
12800;SDS011;6464;42.494;27.470;2023-07-13T13:00:24;18.55;;;17.88;;
12800;SDS011;6464;42.494;27.470;2023-07-13T13:02:58;5.75;;;5.65;;
12800;SDS011;6464;42.494;27.470;2023-07-13T13:05:30;5.90;;;5.80;;
12800;SDS011;6464;42.494;27.470;2023-07-13T13:08:00;12.40;;;12.00;;
12800;SDS011;6464;42.494;27.470;2023-07-13T13:10:29;6.10;;;6.00;;
12800;SDS011;6464;42.494;27.470;2023-07-13T13:13:01;5.88;;;5.78;;
12800;SDS011;6464;42.494;27.470;2023-07-13T13:15:31;5.57;;;5.47;;
12800;SDS011;6464;42.494;27.470;2023-07-13T13:18:02;5.65;;;5.55;;
12800;SDS011;6464;42.494;27.470;2023-07-13T13:20:30;10.05;;;9.75;;
12800;SDS011;6464;42.494;27.470;2023-07-13T13:22:57;5.60;;;5.50;;
12800;SDS011;6464;42.494;27.470;2023-07-13T13:25:24;5.90;;;5.80;;
12800;SDS011;6464;42.494;27.470;2023-07-13T13:27:53;5.97;;;5.88;;
12800;SDS011;6464;42.494;27.470;2023-07-13T13:30:20;5.85;;;5.75;;
12800;SDS011;6464;42.494;27.470;2023-07-13T13:32:47;12.15;;;11.75;;
12800;SDS011;6464;42.494;27.470;2023-07-13T13:35:14;6.10;;;6.00;;
12800;SDS011;6464;42.494;27.470;2023-07-13T13:37:42;6.47;;;6.28;;
12800;SDS011;6464;42.494;27.470;2023-07-13T13:40:16;5.80;;;5.70;;
12800;SDS011;6464;42.494;27.470;2023-07-13T13:42:44;5.50;;;5.40;;
12800;SDS011;6464;42.494;27.470;2023-07-13T13:45:15;14.85;;;14.35;;
12800;SDS011;6464;42.494;27.470;2023-07-13T13:47:43;5.57;;;5.47;;
12800;SDS011;6464;42.494;27.470;2023-07-13T13:50:13;6.03;;;5.93;;
12800;SDS011;6464;42.494;27.470;2023-07-13T13:52:42;8.85;;;8.57;;
12800;SDS011;6464;42.494;27.470;2023-07-13T13:55:12;5.40;;;5.30;;
12800;SDS011;6464;42.494;27.470;2023-07-13T13:57:44;5.60;;;5.50;;
12800;SDS011;6464;42.494;27.470;2023-07-13T14:00:15;6.03;;;5.93;;
12800;SDS011;6464;42.494;27.470;2023-07-13T14:02:44;5.85;;;5.75;;
12800;SDS011;6464;42.494;27.470;2023-07-13T14:05:15;14.82;;;14.32;;
12800;SDS011;6464;42.494;27.470;2023-07-13T14:07:45;5.47;;;5.38;;
12800;SDS011;6464;42.494;27.470;2023-07-13T14:10:13;5.90;;;5.80;;
12800;SDS011;6464;42.494;27.470;2023-07-13T14:12:43;5.50;;;5.40;;
12800;SDS011;6464;42.494;27.470;2023-07-13T14:15:15;5.82;;;5.72;;
12800;SDS011;6464;42.494;27.470;2023-07-13T14:17:47;13.77;;;13.30;;
12800;SDS011;6464;42.494;27.470;2023-07-13T14:20:16;5.43;;;5.32;;
12800;SDS011;6464;42.494;27.470;2023-07-13T14:22:44;5.75;;;5.65;;
12800;SDS011;6464;42.494;27.470;2023-07-13T14:25:11;15.40;;;14.90;;
12800;SDS011;6464;42.494;27.470;2023-07-13T14:27:39;5.90;;;5.80;;
12800;SDS011;6464;42.494;27.470;2023-07-13T14:30:12;6.10;;;6.00;;
12800;SDS011;6464;42.494;27.470;2023-07-13T14:32:43;5.80;;;5.70;;
12800;SDS011;6464;42.494;27.470;2023-07-13T14:35:10;5.70;;;5.60;;
12800;SDS011;6464;42.494;27.470;2023-07-13T14:37:38;15.20;;;14.70;;
12800;SDS011;6464;42.494;27.470;2023-07-13T14:40:12;5.70;;;5.60;;
12800;SDS011;6464;42.494;27.470;2023-07-13T14:42:42;5.55;;;5.45;;
12800;SDS011;6464;42.494;27.470;2023-07-13T14:45:15;6.82;;;6.63;;
12800;SDS011;6464;42.494;27.470;2023-07-13T14:47:50;5.53;;;5.43;;
12800;SDS011;6464;42.494;27.470;2023-07-13T14:50:17;5.55;;;5.45;;
12800;SDS011;6464;42.494;27.470;2023-07-13T14:52:48;5.60;;;5.50;;
12800;SDS011;6464;42.494;27.470;2023-07-13T14:55:17;5.47;;;5.38;;
12800;SDS011;6464;42.494;27.470;2023-07-13T14:57:48;9.88;;;9.57;;
12800;SDS011;6464;42.494;27.470;2023-07-13T15:00:16;5.65;;;5.55;;
12800;SDS011;6464;42.494;27.470;2023-07-13T15:02:45;5.82;;;5.72;;
12800;SDS011;6464;42.494;27.470;2023-07-13T15:05:18;9.48;;;9.18;;
12800;SDS011;6464;42.494;27.470;2023-07-13T15:07:51;5.90;;;5.80;;
12800;SDS011;6464;42.494;27.470;2023-07-13T15:10:22;5.90;;;5.80;;
12800;SDS011;6464;42.494;27.470;2023-07-13T15:12:51;5.75;;;5.65;;
12800;SDS011;6464;42.494;27.470;2023-07-13T15:15:18;5.80;;;5.70;;
12800;SDS011;6464;42.494;27.470;2023-07-13T15:17:45;13.18;;;12.77;;
12800;SDS011;6464;42.494;27.470;2023-07-13T15:20:19;5.72;;;5.63;;
12800;SDS011;6464;42.494;27.470;2023-07-13T15:22:50;5.78;;;5.68;;
12800;SDS011;6464;42.494;27.470;2023-07-13T15:25:18;5.82;;;5.72;;
12800;SDS011;6464;42.494;27.470;2023-07-13T15:27:46;5.93;;;5.82;;
12800;SDS011;6464;42.494;27.470;2023-07-13T15:30:13;9.95;;;9.65;;
12800;SDS011;6464;42.494;27.470;2023-07-13T15:32:41;6.22;;;6.07;;
12800;SDS011;6464;42.494;27.470;2023-07-13T15:35:14;6.00;;;5.90;;
12800;SDS011;6464;42.494;27.470;2023-07-13T15:37:42;5.40;;;5.30;;
12800;SDS011;6464;42.494;27.470;2023-07-13T15:40:10;5.45;;;5.35;;
12800;SDS011;6464;42.494;27.470;2023-07-13T15:42:38;9.45;;;9.15;;
12800;SDS011;6464;42.494;27.470;2023-07-13T15:45:14;5.70;;;5.60;;
12800;SDS011;6464;42.494;27.470;2023-07-13T15:47:43;6.00;;;5.90;;
12800;SDS011;6464;42.494;27.470;2023-07-13T15:50:16;6.10;;;6.00;;
12800;SDS011;6464;42.494;27.470;2023-07-13T15:52:45;5.95;;;5.85;;
12800;SDS011;6464;42.494;27.470;2023-07-13T15:55:17;13.70;;;13.23;;
12800;SDS011;6464;42.494;27.470;2023-07-13T15:57:46;6.20;;;6.00;;
12800;SDS011;6464;42.494;27.470;2023-07-13T16:00:21;6.38;;;6.18;;
12800;SDS011;6464;42.494;27.470;2023-07-13T16:02:50;6.00;;;5.90;;
12800;SDS011;6464;42.494;27.470;2023-07-13T16:05:19;6.28;;;6.07;;
12800;SDS011;6464;42.494;27.470;2023-07-13T16:07:48;15.13;;;14.63;;
12800;SDS011;6464;42.494;27.470;2023-07-13T16:10:19;6.18;;;6.03;;
12800;SDS011;6464;42.494;27.470;2023-07-13T16:12:48;5.85;;;5.75;;
12800;SDS011;6464;42.494;27.470;2023-07-13T16:15:15;9.57;;;9.27;;
12800;SDS011;6464;42.494;27.470;2023-07-13T16:17:45;5.70;;;5.60;;
12800;SDS011;6464;42.494;27.470;2023-07-13T16:20:13;8.65;;;8.40;;
12800;SDS011;6464;42.494;27.470;2023-07-13T16:22:43;5.40;;;5.30;;
12800;SDS011;6464;42.494;27.470;2023-07-13T16:25:16;5.30;;;5.20;;
12800;SDS011;6464;42.494;27.470;2023-07-13T16:27:45;10.70;;;10.40;;
12800;SDS011;6464;42.494;27.470;2023-07-13T16:30:16;5.53;;;5.43;;
12800;SDS011;6464;42.494;27.470;2023-07-13T16:32:46;5.82;;;5.72;;
12800;SDS011;6464;42.494;27.470;2023-07-13T16:35:16;5.60;;;5.50;;
12800;SDS011;6464;42.494;27.470;2023-07-13T16:37:45;5.70;;;5.60;;
12800;SDS011;6464;42.494;27.470;2023-07-13T16:40:19;9.20;;;8.90;;
12800;SDS011;6464;42.494;27.470;2023-07-13T16:42:50;5.20;;;5.10;;
12800;SDS011;6464;42.494;27.470;2023-07-13T16:45:19;5.72;;;5.63;;
12800;SDS011;6464;42.494;27.470;2023-07-13T16:47:49;5.63;;;5.53;;
12800;SDS011;6464;42.494;27.470;2023-07-13T16:50:17;5.22;;;5.13;;
12800;SDS011;6464;42.494;27.470;2023-07-13T16:52:48;9.70;;;9.40;;
12800;SDS011;6464;42.494;27.470;2023-07-13T16:55:17;5.40;;;5.30;;
12800;SDS011;6464;42.494;27.470;2023-07-13T16:57:52;5.20;;;5.10;;
12800;SDS011;6464;42.494;27.470;2023-07-13T17:00:21;5.05;;;4.95;;
12800;SDS011;6464;42.494;27.470;2023-07-13T17:02:55;5.18;;;5.07;;
12800;SDS011;6464;42.494;27.470;2023-07-13T17:05:27;10.52;;;10.23;;
12800;SDS011;6464;42.494;27.470;2023-07-13T17:07:56;5.30;;;5.20;;
12800;SDS011;6464;42.494;27.470;2023-07-13T17:10:25;5.10;;;5.00;;
12800;SDS011;6464;42.494;27.470;2023-07-13T17:12:52;4.97;;;4.88;;
12800;SDS011;6464;42.494;27.470;2023-07-13T17:15:23;5.30;;;5.20;;
12800;SDS011;6464;42.494;27.470;2023-07-13T17:17:55;7.15;;;6.95;;
12800;SDS011;6464;42.494;27.470;2023-07-13T17:20:30;5.07;;;4.97;;
12800;SDS011;6464;42.494;27.470;2023-07-13T17:23:07;4.82;;;4.72;;
12800;SDS011;6464;42.494;27.470;2023-07-13T17:25:40;5.10;;;5.00;;
12800;SDS011;6464;42.494;27.470;2023-07-13T17:28:24;5.20;;;5.10;;
12800;SDS011;6464;42.494;27.470;2023-07-13T17:30:52;8.60;;;8.40;;
12800;SDS011;6464;42.494;27.470;2023-07-13T17:33:25;5.43;;;5.32;;
12800;SDS011;6464;42.494;27.470;2023-07-13T17:35:57;5.10;;;5.00;;
12800;SDS011;6464;42.494;27.470;2023-07-13T17:38:29;5.85;;;5.75;;
12800;SDS011;6464;42.494;27.470;2023-07-13T17:40:59;4.80;;;4.70;;
12800;SDS011;6464;42.494;27.470;2023-07-13T17:43:29;6.90;;;6.70;;
12800;SDS011;6464;42.494;27.470;2023-07-13T17:45:56;4.90;;;4.80;;
12800;SDS011;6464;42.494;27.470;2023-07-13T17:48:24;4.90;;;4.80;;
12800;SDS011;6464;42.494;27.470;2023-07-13T17:50:51;4.88;;;4.78;;
12800;SDS011;6464;42.494;27.470;2023-07-13T17:53:20;5.10;;;5.00;;
12800;SDS011;6464;42.494;27.470;2023-07-13T17:55:48;6.72;;;6.53;;
12800;SDS011;6464;42.494;27.470;2023-07-13T17:58:16;5.40;;;5.30;;
12800;SDS011;6464;42.494;27.470;2023-07-13T18:00:47;8.88;;;8.57;;
12800;SDS011;6464;42.494;27.470;2023-07-13T18:03:23;5.30;;;5.20;;
12800;SDS011;6464;42.494;27.470;2023-07-13T18:05:56;5.30;;;5.20;;
12800;SDS011;6464;42.494;27.470;2023-07-13T18:08:24;5.10;;;5.00;;
12800;SDS011;6464;42.494;27.470;2023-07-13T18:10:53;5.00;;;4.90;;
12800;SDS011;6464;42.494;27.470;2023-07-13T18:13:23;7.80;;;7.60;;
12800;SDS011;6464;42.494;27.470;2023-07-13T18:15:54;5.00;;;4.90;;
12800;SDS011;6464;42.494;27.470;2023-07-13T18:18:23;5.70;;;5.60;;
12800;SDS011;6464;42.494;27.470;2023-07-13T18:20:52;4.70;;;4.60;;
12800;SDS011;6464;42.494;27.470;2023-07-13T18:23:20;4.88;;;4.78;;
12800;SDS011;6464;42.494;27.470;2023-07-13T18:25:49;5.60;;;5.50;;
12800;SDS011;6464;42.494;27.470;2023-07-13T18:28:17;4.70;;;4.60;;
12800;SDS011;6464;42.494;27.470;2023-07-13T18:30:48;5.00;;;4.90;;
12800;SDS011;6464;42.494;27.470;2023-07-13T18:33:21;4.20;;;4.10;;
12800;SDS011;6464;42.494;27.470;2023-07-13T18:35:50;4.50;;;4.40;;
12800;SDS011;6464;42.494;27.470;2023-07-13T18:38:18;5.18;;;5.07;;
12800;SDS011;6464;42.494;27.470;2023-07-13T18:40:47;4.10;;;4.00;;
12800;SDS011;6464;42.494;27.470;2023-07-13T18:43:17;6.97;;;6.78;;
12800;SDS011;6464;42.494;27.470;2023-07-13T18:45:44;3.90;;;3.80;;
12800;SDS011;6464;42.494;27.470;2023-07-13T18:48:12;4.00;;;3.90;;
12800;SDS011;6464;42.494;27.470;2023-07-13T18:50:49;4.00;;;3.90;;
12800;SDS011;6464;42.494;27.470;2023-07-13T18:53:22;4.23;;;4.13;;
12800;SDS011;6464;42.494;27.470;2023-07-13T18:55:50;6.78;;;6.57;;
12800;SDS011;6464;42.494;27.470;2023-07-13T18:58:17;3.60;;;3.60;;
12800;SDS011;6464;42.494;27.470;2023-07-13T19:00:44;4.65;;;4.55;;
12800;SDS011;6464;42.494;27.470;2023-07-13T19:03:14;2.80;;;2.80;;
12800;SDS011;6464;42.494;27.470;2023-07-13T19:05:43;2.60;;;2.60;;
12800;SDS011;6464;42.494;27.470;2023-07-13T19:08:14;2.50;;;2.50;;
12800;SDS011;6464;42.494;27.470;2023-07-13T19:10:44;2.50;;;2.50;;
12800;SDS011;6464;42.494;27.470;2023-07-13T19:13:16;3.13;;;3.13;;
12800;SDS011;6464;42.494;27.470;2023-07-13T19:15:47;2.60;;;2.60;;
12800;SDS011;6464;42.494;27.470;2023-07-13T19:18:15;4.30;;;4.20;;
12800;SDS011;6464;42.494;27.470;2023-07-13T19:20:44;2.60;;;2.60;;
12800;SDS011;6464;42.494;27.470;2023-07-13T19:23:18;2.60;;;2.60;;
12800;SDS011;6464;42.494;27.470;2023-07-13T19:25:58;3.17;;;3.17;;
12800;SDS011;6464;42.494;27.470;2023-07-13T19:28:35;2.67;;;2.67;;
12800;SDS011;6464;42.494;27.470;2023-07-13T19:31:05;2.55;;;2.55;;
12800;SDS011;6464;42.494;27.470;2023-07-13T19:33:42;2.85;;;2.85;;
12800;SDS011;6464;42.494;27.470;2023-07-13T19:36:10;2.70;;;2.70;;
12800;SDS011;6464;42.494;27.470;2023-07-13T19:38:39;5.30;;;5.20;;
12800;SDS011;6464;42.494;27.470;2023-07-13T19:41:10;3.00;;;3.00;;
12800;SDS011;6464;42.494;27.470;2023-07-13T19:43:40;2.60;;;2.60;;
12800;SDS011;6464;42.494;27.470;2023-07-13T19:46:10;3.60;;;3.60;;
12800;SDS011;6464;42.494;27.470;2023-07-13T19:48:46;2.65;;;2.65;;
12800;SDS011;6464;42.494;27.470;2023-07-13T19:51:14;2.70;;;2.70;;
12800;SDS011;6464;42.494;27.470;2023-07-13T19:53:45;2.58;;;2.58;;
12800;SDS011;6464;42.494;27.470;2023-07-13T19:56:14;2.50;;;2.50;;
12800;SDS011;6464;42.494;27.470;2023-07-13T19:58:41;4.05;;;3.95;;
12800;SDS011;6464;42.494;27.470;2023-07-13T20:01:09;2.63;;;2.63;;
12800;SDS011;6464;42.494;27.470;2023-07-13T20:03:38;2.60;;;2.60;;
12800;SDS011;6464;42.494;27.470;2023-07-13T20:06:10;2.50;;;2.50;;
12800;SDS011;6464;42.494;27.470;2023-07-13T20:08:51;2.70;;;2.70;;
12800;SDS011;6464;42.494;27.470;2023-07-13T20:11:18;4.03;;;3.92;;
12800;SDS011;6464;42.494;27.470;2023-07-13T20:13:44;2.60;;;2.60;;
12800;SDS011;6464;42.494;27.470;2023-07-13T20:16:12;2.53;;;2.53;;
12800;SDS011;6464;42.494;27.470;2023-07-13T20:18:40;5.97;;;5.88;;